Tuesday, June 28, 2016, 4:27 PM EDT

KPTW, Pottstown Limerick Airport

Location: Royersford, PA, United States Lat: 40.233
Local Time: 4:27 PM EDT (20:27 GMT) Lon: -75.55
Time Zone: US/Eastern Elev: 291 ft

Show me the last for .
Show Decoded

2016-06-28 15:54 METAR KPTW 281954Z AUTO 19006KT 8SM CLR 28/21 A2987 RMK AO2 SLP110 T02780206 =
2016-06-28 14:54 METAR KPTW 281854Z AUTO 20007KT 160V230 8SM FEW026 28/21 A2990 RMK AO2 SLP118
                 T02830211 =
2016-06-28 13:54 METAR KPTW 281754Z AUTO 22006KT 7SM FEW023 27/22 A2992 RMK AO2 SLP127 T02720217
                 10272 20217 58015 =
2016-06-28 12:54 METAR KPTW 281654Z AUTO 00000KT 6SM HZ BKN019 BKN024 26/22 A2993 RMK AO2 SLP132
                 T02610217 =
2016-06-28 12:45 METAR KPTW 281645Z AUTO 00000KT 6SM HZ SCT017 BKN023 BKN031 27/22 A2994 RMK AO2
                 T02670217 =
2016-06-28 12:32 METAR KPTW 281632Z AUTO 00000KT 6SM HZ SCT015 BKN031 26/22 A2995 RMK AO2
                 T02560217 =
2016-06-28 11:54 METAR KPTW 281554Z AUTO 00000KT 5SM HZ BKN010 OVC017 24/22 A2996 RMK AO2 SLP140
                 T02440217 =
2016-06-28 11:45 METAR KPTW 281545Z AUTO 00000KT 5SM HZ OVC010 24/22 A2996 RMK AO2 T02440217 =
2016-06-28 11:34 METAR KPTW 281534Z AUTO 00000KT 5SM BR OVC009 23/21 A2997 RMK AO2 CIG 008V015
                 T02330211 =
2016-06-28 11:24 METAR KPTW 281524Z AUTO 00000KT 5SM BR OVC010 23/22 A2997 RMK AO2 CIG 007V015
                 T02330217 =
2016-06-28 10:54 METAR KPTW 281454Z AUTO 00000KT 5SM BR OVC007 23/21 A2997 RMK AO2 SLP142
                 T02280211 50000 =
2016-06-28 09:54 METAR KPTW 281354Z AUTO 00000KT 3SM BR OVC005 22/21 A2997 RMK AO2 SLP144
                 T02220211 =
2016-06-28 08:54 METAR KPTW 281254Z AUTO 00000KT 4SM BR OVC006 22/21 A2997 RMK AO2 SLP144
                 T02170206 =
2016-06-28 07:54 METAR KPTW 281154Z AUTO 19003KT 4SM BR OVC006 21/21 A2996 RMK AO2 SLP142 60000
                 70015 T02110206 10211 20206 50001 =
2016-06-28 06:54 METAR KPTW 281054Z AUTO 00000KT 5SM BR OVC007 21/20 A2997 RMK AO2 SLP143
                 T02110200 =
2016-06-28 06:01 METAR KPTW 281001Z AUTO 00000KT 4SM BR BKN009 OVC016 21/20 A2996 RMK AO2
                 T02110200 =
2016-06-28 05:54 METAR KPTW 280954Z AUTO 00000KT 5SM BR SCT010 OVC017 21/20 A2996 RMK AO2
                 RAB0859E11 SLP141 P0000 T02110200 =
2016-06-28 04:54 METAR KPTW 280854Z AUTO 00000KT 7SM OVC019 21/20 A2996 RMK AO2 SLP141 T02060200
                 55003 =
2016-06-28 03:54 METAR KPTW 280754Z AUTO 00000KT 8SM BKN019 OVC031 21/20 A2996 RMK AO2 SLP140
                 T02110200 TSNO =
2016-06-28 02:54 METAR KPTW 280654Z AUTO 00000KT 7SM FEW009 OVC032 21/20 A2997 RMK AO2 SLP144
                 T02110200 =
2016-06-28 02:34 METAR KPTW 280634Z AUTO 00000KT 7SM SCT009 OVC032 21/21 A2997 RMK AO2 T02110206
                 =
2016-06-28 01:54 METAR KPTW 280554Z AUTO 00000KT 7SM BKN009 OVC033 21/21 A2998 RMK AO2 CIG
                 007V014 SLP147 60001 T02110206 10217 20211 58008 TSNO =
2016-06-28 00:54 METAR KPTW 280454Z AUTO 00000KT 8SM BKN010 OVC015 21/21 A2999 RMK AO2 CIG
                 008V013 SLP150 T02110206 402940139 =
2016-06-28 00:14 METAR KPTW 280414Z AUTO 00000KT 8SM BKN010 OVC015 21/21 A3000 RMK AO2 CIG
                 008V013 T02110206 =
2016-06-28 00:03 METAR KPTW 280403Z AUTO 00000KT 8SM FEW009 BKN015 OVC033 22/21 A3000 RMK AO2
                 T02170206 =
2016-06-27 23:54 METAR KPTW 280354Z AUTO 00000KT 8SM BKN015 BKN034 OVC044 21/21 A3000 RMK AO2
                 SLP155 T02110206 =
2016-06-27 23:23 METAR KPTW 280323Z AUTO 00000KT 8SM FEW009 BKN036 OVC042 21/21 A3000 RMK AO2
                 T02110206 =
2016-06-27 22:54 METAR KPTW 280254Z AUTO 00000KT 9SM BKN040 OVC048 22/21 A3001 RMK AO2 RAB08E26
                 SLP156 P0001 60001 T02170206 50002 =
2016-06-27 21:54 METAR KPTW 280154Z AUTO 00000KT 9SM OVC040 22/21 A3002 RMK AO2 RAE0057B23E35
                 SLP160 P0000 T02170206 =
2016-06-27 20:54 METAR KPTW 280054Z AUTO VRB03KT 8SM -RA SCT043 OVC060 22/21 A3001 RMK AO2 RAB28
                 SLP158 P0000 T02170206 =
2016-06-27 19:54 METAR KPTW 272354Z AUTO 18005KT 6SM BR SCT041 OVC055 22/21 A3000 RMK AO2
                 RAB16E35 SLP155 P0001 60014 T02220211 10294 20217 52000 TSNO =
2016-06-27 18:54 METAR KPTW 272254Z AUTO 21003KT 7SM BKN060 OVC080 22/21 A3000 RMK AO2 RAE46
                 SLP155 P0007 T02170206 =
2016-06-27 18:39 METAR KPTW 272239Z AUTO 17005KT 5SM -RA BR FEW048 BKN070 OVC085 22/21 A2999 RMK
                 AO2 P0006 T02170206 =
2016-06-27 18:30 METAR KPTW 272230Z AUTO VRB04KT 2 1/2SM RA BR FEW037 BKN070 OVC085 22/21 A3000
                 RMK AO2 P0006 T02220206 =
2016-06-27 18:14 METAR KPTW 272214Z AUTO 00000KT 1 3/4SM +RA BR SCT037 BKN045 OVC075 22/21 A3000
                 RMK AO2 P0003 T02220206 =
2016-06-27 17:54 METAR KPTW 272154Z AUTO 26003KT 5SM -RA BR SCT043 BKN050 OVC080 22/21 A3000 RMK
                 AO2 RAB2055 SLP154 P0006 T02220206 =
2016-06-27 17:49 METAR KPTW 272149Z AUTO 24003KT 4SM -RA BR BKN043 OVC050 22/21 A3000 RMK AO2
                 RAB2055 P0006 =
2016-06-27 17:26 METAR KPTW 272126Z AUTO 26006KT 2 1/2SM -RA BKN045 BKN050 OVC065 24/19 A3000 RMK
                 AO2 RAB2055 P0003 T02390194 =
2016-06-27 16:54 METAR KPTW 272054Z AUTO 20005KT 9SM BKN042 BKN055 OVC070 27/18 A3000 RMK AO2
                 SLP154 T02720183 56013 =

Support USWX by starting your Amazon purchase here.